sensor_id;sensor_type;location;lat;lon;timestamp;P1;P2;P0
57798;PMS7003;43626;53.866;30.298;2023-02-15T00:01:15;6;4.8;2.4
57798;PMS7003;43626;53.866;30.298;2023-02-15T00:06:57;6.2;4.8;1.8
57798;PMS7003;43626;53.866;30.298;2023-02-15T00:11:51;5.4;3.8;2.2
57798;PMS7003;43626;53.866;30.298;2023-02-15T00:16:57;4.3;3.3;2
57798;PMS7003;43626;53.866;30.298;2023-02-15T00:21:57;4.8;3;1.4
57798;PMS7003;43626;53.866;30.298;2023-02-15T00:26:49;4.4;3.6;2
57798;PMS7003;43626;53.866;30.298;2023-02-15T00:31:47;5;4.2;1.8
57798;PMS7003;43626;53.866;30.298;2023-02-15T00:36:39;6.6;4.8;2.8
57798;PMS7003;43626;53.866;30.298;2023-02-15T00:41:45;6.2;4.2;2.2
57798;PMS7003;43626;53.866;30.298;2023-02-15T00:46:25;6.6;3.6;1.6
57798;PMS7003;43626;53.866;30.298;2023-02-15T00:51:47;3.2;2.2;1.2
57798;PMS7003;43626;53.866;30.298;2023-02-15T00:56:27;3.6;2.8;1.6
57798;PMS7003;43626;53.866;30.298;2023-02-15T01:01:59;6.6;4;2.4
57798;PMS7003;43626;53.866;30.298;2023-02-15T01:06:41;7.6;4.6;2.6
57798;PMS7003;43626;53.866;30.298;2023-02-15T01:11:59;9.8;6.8;3
57798;PMS7003;43626;53.866;30.298;2023-02-15T01:16:35;8.5;6.5;3
57798;PMS7003;43626;53.866;30.298;2023-02-15T01:21:37;9.6;6.8;2.8
57798;PMS7003;43626;53.866;30.298;2023-02-15T01:26:16;12.2;10;5
57798;PMS7003;43626;53.866;30.298;2023-02-15T01:31:27;9.4;6.8;3.4
57798;PMS7003;43626;53.866;30.298;2023-02-15T01:36:27;10;8.6;4.6
57798;PMS7003;43626;53.866;30.298;2023-02-15T01:41:15;9;6.6;3.6
57798;PMS7003;43626;53.866;30.298;2023-02-15T01:46:40;8.6;6.4;3
57798;PMS7003;43626;53.866;30.298;2023-02-15T01:51:48;7.4;5.4;2.6
57798;PMS7003;43626;53.866;30.298;2023-02-15T01:57:02;5.8;5.6;3
57798;PMS7003;43626;53.866;30.298;2023-02-15T02:01:25;8.8;7.2;3.4
57798;PMS7003;43626;53.866;30.298;2023-02-15T02:06:45;9;7.4;4
57798;PMS7003;43626;53.866;30.298;2023-02-15T02:12:01;8.2;7;3.2
57798;PMS7003;43626;53.866;30.298;2023-02-15T02:16:39;8;5.8;3
57798;PMS7003;43626;53.866;30.298;2023-02-15T02:21:43;8;4.8;3
57798;PMS7003;43626;53.866;30.298;2023-02-15T02:26:29;7;6;2.8
57798;PMS7003;43626;53.866;30.298;2023-02-15T02:31:52;8.6;6.6;3.6
57798;PMS7003;43626;53.866;30.298;2023-02-15T02:36:29;9;7.4;3
57798;PMS7003;43626;53.866;30.298;2023-02-15T02:41:44;5.6;4.4;2.4
57798;PMS7003;43626;53.866;30.298;2023-02-15T02:46:17;6.8;4.4;2.8
57798;PMS7003;43626;53.866;30.298;2023-02-15T02:52:00;5.4;4.4;2.4
57798;PMS7003;43626;53.866;30.298;2023-02-15T02:56:42;7.6;4.4;2.8
57798;PMS7003;43626;53.866;30.298;2023-02-15T03:01:46;7;4;2.2
57798;PMS7003;43626;53.866;30.298;2023-02-15T03:06:50;8.2;6.2;3.2
57798;PMS7003;43626;53.866;30.298;2023-02-15T03:11:27;6.4;4.4;3
57798;PMS7003;43626;53.866;30.298;2023-02-15T03:16:25;7.6;5.8;3
57798;PMS7003;43626;53.866;30.298;2023-02-15T03:21:15;7;4.8;2.8
57798;PMS7003;43626;53.866;30.298;2023-02-15T03:27:02;7.8;5;3
57798;PMS7003;43626;53.866;30.298;2023-02-15T03:31:15;10.2;7.8;4
57798;PMS7003;43626;53.866;30.298;2023-02-15T03:36:17;11;7.4;3.6
57798;PMS7003;43626;53.866;30.298;2023-02-15T03:41:58;6.6;5.2;2.8
57798;PMS7003;43626;53.866;30.298;2023-02-15T03:47:00;4;2.8;2
57798;PMS7003;43626;53.866;30.298;2023-02-15T03:51:40;6;3.2;2
57798;PMS7003;43626;53.866;30.298;2023-02-15T03:56:57;7;5.8;2.6
57798;PMS7003;43626;53.866;30.298;2023-02-15T04:02:00;12.2;9.8;4.4
57798;PMS7003;43626;53.866;30.298;2023-02-15T04:06:27;24.2;18.6;7.8
57798;PMS7003;43626;53.866;30.298;2023-02-15T04:11:27;22;15.8;9
57798;PMS7003;43626;53.866;30.298;2023-02-15T04:16:15;24.8;19.2;9.6
57798;PMS7003;43626;53.866;30.298;2023-02-15T04:21:22;15.3;11.5;6.5
57798;PMS7003;43626;53.866;30.298;2023-02-15T04:26:45;7.6;5.6;3
57798;PMS7003;43626;53.866;30.298;2023-02-15T04:31:25;7;5.2;3
57798;PMS7003;43626;53.866;30.298;2023-02-15T04:36:59;13;10;6
57798;PMS7003;43626;53.866;30.298;2023-02-15T04:41:39;11.6;8.6;4.8
57798;PMS7003;43626;53.866;30.298;2023-02-15T04:46:41;11.6;8;4.4
57798;PMS7003;43626;53.866;30.298;2023-02-15T04:51:15;16.6;14.4;7.8
57798;PMS7003;43626;53.866;30.298;2023-02-15T04:56:25;25.6;21.4;11.2
57798;PMS7003;43626;53.866;30.298;2023-02-15T05:01:27;41;30.8;16.8
57798;PMS7003;43626;53.866;30.298;2023-02-15T05:06:27;15.4;12;6.6
57798;PMS7003;43626;53.866;30.298;2023-02-15T05:11:15;14.4;11;6.6
57798;PMS7003;43626;53.866;30.298;2023-02-15T05:16:49;17.2;14.4;7.6
57798;PMS7003;43626;53.866;30.298;2023-02-15T05:21:57;10;8.3;5
57798;PMS7003;43626;53.866;30.298;2023-02-15T05:26:25;8.5;5.8;3
57798;PMS7003;43626;53.866;30.298;2023-02-15T05:31:59;10;8;4.2
57798;PMS7003;43626;53.866;30.298;2023-02-15T05:36:15;12.6;10.2;4.4
57798;PMS7003;43626;53.866;30.298;2023-02-15T05:41:33;13.6;10.4;5.6
57798;PMS7003;43626;53.866;30.298;2023-02-15T05:46:15;14.4;11.2;6.4
57798;PMS7003;43626;53.866;30.298;2023-02-15T05:51:45;11.6;9;4.4
57798;PMS7003;43626;53.866;30.298;2023-02-15T05:56:37;9.8;8.4;5.4
57798;PMS7003;43626;53.866;30.298;2023-02-15T06:01:59;19.4;13.4;7.8
57798;PMS7003;43626;53.866;30.298;2023-02-15T06:06:15;18.6;15.8;8.6
57798;PMS7003;43626;53.866;30.298;2023-02-15T06:11:57;17.4;14;8.2
57798;PMS7003;43626;53.866;30.298;2023-02-15T06:16:59;18.8;13.4;7.6
57798;PMS7003;43626;53.866;30.298;2023-02-15T06:22:01;17.4;13.4;7.2
57798;PMS7003;43626;53.866;30.298;2023-02-15T06:26:49;12.5;10.3;5.8
57798;PMS7003;43626;53.866;30.298;2023-02-15T06:31:37;20;15;7.4
57798;PMS7003;43626;53.866;30.298;2023-02-15T06:36:43;12.6;9.6;5.2
57798;PMS7003;43626;53.866;30.298;2023-02-15T06:41:25;11.2;9;4.4
57798;PMS7003;43626;53.866;30.298;2023-02-15T06:46:37;10.6;7.8;3.8
57798;PMS7003;43626;53.866;30.298;2023-02-15T06:51:27;9;7.6;3.6
57798;PMS7003;43626;53.866;30.298;2023-02-15T06:56:59;12.2;9.6;4.4
57798;PMS7003;43626;53.866;30.298;2023-02-15T07:01:49;10.4;9.4;5
57798;PMS7003;43626;53.866;30.298;2023-02-15T07:06:59;12;10.4;5.4
57798;PMS7003;43626;53.866;30.298;2023-02-15T07:11:57;8;7.2;3.4
57798;PMS7003;43626;53.866;30.298;2023-02-15T07:16:59;9.8;7.4;4.4
57798;PMS7003;43626;53.866;30.298;2023-02-15T07:21:25;8.2;7;4.2
57798;PMS7003;43626;53.866;30.298;2023-02-15T07:26:17;9.3;7.5;4
57798;PMS7003;43626;53.866;30.298;2023-02-15T07:31:45;8;6.4;3.2
57798;PMS7003;43626;53.866;30.298;2023-02-15T07:36:15;11.4;8;3.6
57798;PMS7003;43626;53.866;30.298;2023-02-15T07:41:27;10.2;7.4;4.2
57798;PMS7003;43626;53.866;30.298;2023-02-15T07:46:27;12;8.6;4.4
57798;PMS7003;43626;53.866;30.298;2023-02-15T07:52:01;9.8;6.6;3.6
57798;PMS7003;43626;53.866;30.298;2023-02-15T07:56:39;8.4;5.8;3
57798;PMS7003;43626;53.866;30.298;2023-02-15T08:01:59;7;4.4;2.4
57798;PMS7003;43626;53.866;30.298;2023-02-15T08:06:51;7;4.6;2.4
57798;PMS7003;43626;53.866;30.298;2023-02-15T08:11:49;6.8;4.6;2.6
57798;PMS7003;43626;53.866;30.298;2023-02-15T08:16:29;6.2;4.2;2.6
57798;PMS7003;43626;53.866;30.298;2023-02-15T08:21:29;6.8;4.8;2.6
57798;PMS7003;43626;53.866;30.298;2023-02-15T08:26:15;7.8;4.8;3
57798;PMS7003;43626;53.866;30.298;2023-02-15T08:31:38;5.8;4.8;2.4
57798;PMS7003;43626;53.866;30.298;2023-02-15T08:36:37;17.6;13.2;7.2
57798;PMS7003;43626;53.866;30.298;2023-02-15T08:41:42;8.4;6.2;3
57798;PMS7003;43626;53.866;30.298;2023-02-15T08:47:01;8.8;6.2;3.8
57798;PMS7003;43626;53.866;30.298;2023-02-15T08:51:41;8;5.4;3.2
57798;PMS7003;43626;53.866;30.298;2023-02-15T08:56:47;9.2;6.4;3.4
57798;PMS7003;43626;53.866;30.298;2023-02-15T09:01:48;9;5.6;3
57798;PMS7003;43626;53.866;30.298;2023-02-15T09:06:46;7;5.2;3.2
57798;PMS7003;43626;53.866;30.298;2023-02-15T09:12:01;7.2;5.8;3.2
57798;PMS7003;43626;53.866;30.298;2023-02-15T09:16:28;7.6;5.6;3.2
57798;PMS7003;43626;53.866;30.298;2023-02-15T09:21:59;5;3.8;2.6
57798;PMS7003;43626;53.866;30.298;2023-02-15T09:26:38;5.8;3.6;1.8
57798;PMS7003;43626;53.866;30.298;2023-02-15T09:31:16;8.8;5.5;3
57798;PMS7003;43626;53.866;30.298;2023-02-15T09:37:01;7.6;5.6;2.2
57798;PMS7003;43626;53.866;30.298;2023-02-15T09:42:11;9.6;6.6;3.4
57798;PMS7003;43626;53.866;30.298;2023-02-15T09:46:19;8;6.4;3.4
57798;PMS7003;43626;53.866;30.298;2023-02-15T09:52:05;10.4;9;4.2
57798;PMS7003;43626;53.866;30.298;2023-02-15T09:57:05;12.2;11;6.4
57798;PMS7003;43626;53.866;30.298;2023-02-15T10:01:17;12.6;10.4;5.8
57798;PMS7003;43626;53.866;30.298;2023-02-15T10:06:30;16.2;13;7.8
57798;PMS7003;43626;53.866;30.298;2023-02-15T10:11:33;10;7.8;4
57798;PMS7003;43626;53.866;30.298;2023-02-15T10:16:17;13.4;11;5.2
57798;PMS7003;43626;53.866;30.298;2023-02-15T10:21:45;14;9.8;5
57798;PMS7003;43626;53.866;30.298;2023-02-15T10:26:41;11;9.4;5.4
57798;PMS7003;43626;53.866;30.298;2023-02-15T10:32:01;10;9;5.3
57798;PMS7003;43626;53.866;30.298;2023-02-15T10:37:05;7;5.6;3.8
57798;PMS7003;43626;53.866;30.298;2023-02-15T10:41:42;10;7.8;4.2
57798;PMS7003;43626;53.866;30.298;2023-02-15T10:47:06;11.6;9.6;5.8
57798;PMS7003;43626;53.866;30.298;2023-02-15T10:52:08;18;14;9.4
57798;PMS7003;43626;53.866;30.298;2023-02-15T10:56:17;24.2;18.6;10.8
57798;PMS7003;43626;53.866;30.298;2023-02-15T11:01:24;11;9.6;6.2
57798;PMS7003;43626;53.866;30.298;2023-02-15T11:06:38;13.4;10;5.6
57798;PMS7003;43626;53.866;30.298;2023-02-15T11:11:29;14.6;11;5.6
57798;PMS7003;43626;53.866;30.298;2023-02-15T11:16:50;14.2;12;5.8
57798;PMS7003;43626;53.866;30.298;2023-02-15T11:21:50;12.6;9;5
57798;PMS7003;43626;53.866;30.298;2023-02-15T11:27:02;12.4;10.4;5.6
57798;PMS7003;43626;53.866;30.298;2023-02-15T11:31:29;13;8.5;5.5
57798;PMS7003;43626;53.866;30.298;2023-02-15T11:36:40;15.6;12.8;7
57798;PMS7003;43626;53.866;30.298;2023-02-15T11:41:17;16;12.8;7
57798;PMS7003;43626;53.866;30.298;2023-02-15T11:46:49;14.8;10.4;6
57798;PMS7003;43626;53.866;30.298;2023-02-15T11:51:27;10;8.4;4
57798;PMS7003;43626;53.866;30.298;2023-02-15T11:56:16;10.2;8;4.6
57798;PMS7003;43626;53.866;30.298;2023-02-15T12:01:28;20.2;15.2;8.6
57798;PMS7003;43626;53.866;30.298;2023-02-15T12:06:51;27.4;22;11.2
57798;PMS7003;43626;53.866;30.298;2023-02-15T12:11:51;19.8;16.6;8.6
57798;PMS7003;43626;53.866;30.298;2023-02-15T12:16:41;13.6;11.2;6.8
57798;PMS7003;43626;53.866;30.298;2023-02-15T12:21:58;15;11.8;6.4
57798;PMS7003;43626;53.866;30.298;2023-02-15T12:26:22;14.4;11.2;6.2
57798;PMS7003;43626;53.866;30.298;2023-02-15T12:31:46;20.8;16.5;8.8
57798;PMS7003;43626;53.866;30.298;2023-02-15T12:36:17;11.6;8.8;4.6
57798;PMS7003;43626;53.866;30.298;2023-02-15T12:41:57;12.6;9.8;5.2
57798;PMS7003;43626;53.866;30.298;2023-02-15T12:46:27;10.8;8.6;4.8
57798;PMS7003;43626;53.866;30.298;2023-02-15T12:52:02;11.2;8.4;5.6
57798;PMS7003;43626;53.866;30.298;2023-02-15T12:56:55;9.6;8.4;5.8
57798;PMS7003;43626;53.866;30.298;2023-02-15T13:02:01;13.4;11;6
57798;PMS7003;43626;53.866;30.298;2023-02-15T13:07:01;9.6;8.6;5
57798;PMS7003;43626;53.866;30.298;2023-02-15T13:11:35;12;8.8;5.4
57798;PMS7003;43626;53.866;30.298;2023-02-15T13:16:28;10.2;8.4;4.6
57798;PMS7003;43626;53.866;30.298;2023-02-15T13:21:26;10.2;8.2;5
57798;PMS7003;43626;53.866;30.298;2023-02-15T13:26:49;9.4;7.2;4.6
57798;PMS7003;43626;53.866;30.298;2023-02-15T13:31:17;11.8;10.3;5.8
57798;PMS7003;43626;53.866;30.298;2023-02-15T13:36:51;10;7.6;4.6
57798;PMS7003;43626;53.866;30.298;2023-02-15T13:41:30;16.2;11.2;6
57798;PMS7003;43626;53.866;30.298;2023-02-15T13:47:05;16.8;11.8;6.8
57798;PMS7003;43626;53.866;30.298;2023-02-15T13:51:27;14.2;11.6;6.2
57798;PMS7003;43626;53.866;30.298;2023-02-15T13:57:12;14.6;12.2;7
57798;PMS7003;43626;53.866;30.298;2023-02-15T14:01:53;15.2;12.6;7
57798;PMS7003;43626;53.866;30.298;2023-02-15T14:06:55;13;10.2;6.2
57798;PMS7003;43626;53.866;30.298;2023-02-15T14:11:27;11.4;9.8;6
57798;PMS7003;43626;53.866;30.298;2023-02-15T14:16:17;14;11.4;6.2
57798;PMS7003;43626;53.866;30.298;2023-02-15T14:21:48;12.6;11.2;6
57798;PMS7003;43626;53.866;30.298;2023-02-15T14:26:17;12.8;11;6
57798;PMS7003;43626;53.866;30.298;2023-02-15T14:31:48;15.4;13.2;7.6
57798;PMS7003;43626;53.866;30.298;2023-02-15T14:36:41;28;19.8;10.8
57798;PMS7003;43626;53.866;30.298;2023-02-15T14:41:18;26.6;22.6;13.2
57798;PMS7003;43626;53.866;30.298;2023-02-15T14:46:42;56.8;44;23.4
57798;PMS7003;43626;53.866;30.298;2023-02-15T14:52:04;77.6;54;28
57798;PMS7003;43626;53.866;30.298;2023-02-15T14:57:20;113.4;84;36.4
57798;PMS7003;43626;53.866;30.298;2023-02-15T15:01:53;123.6;89.6;38.6
57798;PMS7003;43626;53.866;30.298;2023-02-15T15:06:30;66.2;49.4;28.8
57798;PMS7003;43626;53.866;30.298;2023-02-15T15:11:47;43.8;35.2;19.8
57798;PMS7003;43626;53.866;30.298;2023-02-15T15:16:49;33.8;24.2;13.2
57798;PMS7003;43626;53.866;30.298;2023-02-15T15:21:51;38.4;31.2;17
57798;PMS7003;43626;53.866;30.298;2023-02-15T15:26:49;27.4;23;13.8
57798;PMS7003;43626;53.866;30.298;2023-02-15T15:31:44;19;16;9.6
57798;PMS7003;43626;53.866;30.298;2023-02-15T15:37:16;20;16;10.3
57798;PMS7003;43626;53.866;30.298;2023-02-15T15:41:42;19.2;16.2;10.4
57798;PMS7003;43626;53.866;30.298;2023-02-15T15:46:53;18.4;16.2;10.6
57798;PMS7003;43626;53.866;30.298;2023-02-15T15:51:51;14.8;13;7.6
57798;PMS7003;43626;53.866;30.298;2023-02-15T15:56:26;15.4;14;9.6
57798;PMS7003;43626;53.866;30.298;2023-02-15T16:01:24;21;18.2;10.4
57798;PMS7003;43626;53.866;30.298;2023-02-15T16:06:39;24;17.8;10.8
57798;PMS7003;43626;53.866;30.298;2023-02-15T16:12:01;25.8;20.2;13.4
57798;PMS7003;43626;53.866;30.298;2023-02-15T16:16:29;25.6;21.4;14
57798;PMS7003;43626;53.866;30.298;2023-02-15T16:21:54;31.6;24.6;14.6
57798;PMS7003;43626;53.866;30.298;2023-02-15T16:27:07;26.6;22.8;14
57798;PMS7003;43626;53.866;30.298;2023-02-15T16:32:01;25.6;21.2;13.6
57798;PMS7003;43626;53.866;30.298;2023-02-15T16:36:41;32;27.5;16.3
57798;PMS7003;43626;53.866;30.298;2023-02-15T16:42:03;33.6;28;15.8
57798;PMS7003;43626;53.866;30.298;2023-02-15T16:47:03;31.6;27;15
57798;PMS7003;43626;53.866;30.298;2023-02-15T16:51:32;36;28.6;17.8
57798;PMS7003;43626;53.866;30.298;2023-02-15T16:56:51;62.8;46.8;28
57798;PMS7003;43626;53.866;30.298;2023-02-15T17:01:39;86;59;30.8
57798;PMS7003;43626;53.866;30.298;2023-02-15T17:06:39;78;52.8;26.6
57798;PMS7003;43626;53.866;30.298;2023-02-15T17:11:49;59.6;43.8;24
57798;PMS7003;43626;53.866;30.298;2023-02-15T17:16:42;34.6;28.6;16.6
57798;PMS7003;43626;53.866;30.298;2023-02-15T17:22:04;30;24.6;14.2
57798;PMS7003;43626;53.866;30.298;2023-02-15T17:27:00;27.4;22.8;13.6
57798;PMS7003;43626;53.866;30.298;2023-02-15T17:31:39;28.6;23.4;15.6
57798;PMS7003;43626;53.866;30.298;2023-02-15T17:36:16;32;28.3;17.3
57798;PMS7003;43626;53.866;30.298;2023-02-15T17:41:51;37.2;30.8;18
57798;PMS7003;43626;53.866;30.298;2023-02-15T17:46:15;37.4;31.4;18.8
57798;PMS7003;43626;53.866;30.298;2023-02-15T17:51:25;58;43.8;24.5
57798;PMS7003;43626;53.866;30.298;2023-02-15T17:56:27;61.8;47;27
57798;PMS7003;43626;53.866;30.298;2023-02-15T18:01:51;62.2;45;25.6
57798;PMS7003;43626;53.866;30.298;2023-02-15T18:07:03;53.8;37.6;20.2
57798;PMS7003;43626;53.866;30.298;2023-02-15T18:11:39;40.2;33.4;19.4
57798;PMS7003;43626;53.866;30.298;2023-02-15T18:17:03;40.4;32.6;18.6
57798;PMS7003;43626;53.866;30.298;2023-02-15T18:21:25;38.2;33;18.6
57798;PMS7003;43626;53.866;30.298;2023-02-15T18:26:41;51.4;38.6;22.4
57798;PMS7003;43626;53.866;30.298;2023-02-15T18:31:15;52;39.8;24.2
57798;PMS7003;43626;53.866;30.298;2023-02-15T18:36:52;46.6;36.2;22
57798;PMS7003;43626;53.866;30.298;2023-02-15T18:41:49;51.8;39.6;23.6
57798;PMS7003;43626;53.866;30.298;2023-02-15T18:47:03;58;42.6;24.6
57798;PMS7003;43626;53.866;30.298;2023-02-15T18:51:51;54.5;40.5;23.8
57798;PMS7003;43626;53.866;30.298;2023-02-15T18:56:54;56.4;43.2;25
57798;PMS7003;43626;53.866;30.298;2023-02-15T19:01:59;57.6;45.6;26.8
57798;PMS7003;43626;53.866;30.298;2023-02-15T19:06:39;75.6;55;31.8
57798;PMS7003;43626;53.866;30.298;2023-02-15T19:12:01;64.4;46.4;27.8
57798;PMS7003;43626;53.866;30.298;2023-02-15T19:16:39;51.8;39.6;23.8
57798;PMS7003;43626;53.866;30.298;2023-02-15T19:21:47;35.8;31.8;19.2
57798;PMS7003;43626;53.866;30.298;2023-02-15T19:26:31;32.4;26.6;15.8
57798;PMS7003;43626;53.866;30.298;2023-02-15T19:31:51;23.6;20.4;13.4
57798;PMS7003;43626;53.866;30.298;2023-02-15T19:36:29;30;23;14
57798;PMS7003;43626;53.866;30.298;2023-02-15T19:42:03;32.4;25.4;15.8
57798;PMS7003;43626;53.866;30.298;2023-02-15T19:46:53;28.2;24.4;15.2
57798;PMS7003;43626;53.866;30.298;2023-02-15T19:52:03;54.8;40.5;22
57798;PMS7003;43626;53.866;30.298;2023-02-15T19:57:01;36.8;27.8;16
57798;PMS7003;43626;53.866;30.298;2023-02-15T20:01:47;32;27.2;15.6
57798;PMS7003;43626;53.866;30.298;2023-02-15T20:06:15;29.6;22.6;12.6
57798;PMS7003;43626;53.866;30.298;2023-02-15T20:11:15;24;21.8;12.8
57798;PMS7003;43626;53.866;30.298;2023-02-15T20:16:51;24;18;10.2
57798;PMS7003;43626;53.866;30.298;2023-02-15T20:21:29;23.2;18.2;10
57798;PMS7003;43626;53.866;30.298;2023-02-15T20:26:53;28.6;23;15.4
57798;PMS7003;43626;53.866;30.298;2023-02-15T20:31:14;26.4;21.6;13
57798;PMS7003;43626;53.866;30.298;2023-02-15T20:37:01;24.2;22.2;13
57798;PMS7003;43626;53.866;30.298;2023-02-15T20:41:41;29.8;23.2;13.4
57798;PMS7003;43626;53.866;30.298;2023-02-15T20:47:05;34.6;28.6;17.8
57798;PMS7003;43626;53.866;30.298;2023-02-15T20:51:54;41.3;33;20.8
57798;PMS7003;43626;53.866;30.298;2023-02-15T20:56:29;52.6;40.4;25.2
57798;PMS7003;43626;53.866;30.298;2023-02-15T21:01:37;58.4;46;28.2
57798;PMS7003;43626;53.866;30.298;2023-02-15T21:06:29;63.8;48.2;30.8
57798;PMS7003;43626;53.866;30.298;2023-02-15T21:11:52;62.6;47.6;28.4
57798;PMS7003;43626;53.866;30.298;2023-02-15T21:16:15;59.4;45.2;27.8
57798;PMS7003;43626;53.866;30.298;2023-02-15T21:21:50;62;46.4;28
57798;PMS7003;43626;53.866;30.298;2023-02-15T21:26:16;57.4;45;27.6
57798;PMS7003;43626;53.866;30.298;2023-02-15T21:31:27;59.4;45.2;28.2
57798;PMS7003;43626;53.866;30.298;2023-02-15T21:36:51;44.2;36.6;23.8
57798;PMS7003;43626;53.866;30.298;2023-02-15T21:41:43;51;40.6;25
57798;PMS7003;43626;53.866;30.298;2023-02-15T21:46:51;49.4;39.4;25.2
57798;PMS7003;43626;53.866;30.298;2023-02-15T21:51:29;52;39.8;25.2
57798;PMS7003;43626;53.866;30.298;2023-02-15T21:56:16;48;38.5;24
57798;PMS7003;43626;53.866;30.298;2023-02-15T22:01:18;49.2;38.2;23
57798;PMS7003;43626;53.866;30.298;2023-02-15T22:07:03;49.2;37.6;23.4
57798;PMS7003;43626;53.866;30.298;2023-02-15T22:11:41;35.8;29.6;17.8
57798;PMS7003;43626;53.866;30.298;2023-02-15T22:16:25;28.8;24.6;15.4
57798;PMS7003;43626;53.866;30.298;2023-02-15T22:22:03;34.6;28.8;18.4
57798;PMS7003;43626;53.866;30.298;2023-02-15T22:26:18;32;26.6;16
57798;PMS7003;43626;53.866;30.298;2023-02-15T22:31:29;27;23.6;14.2
57798;PMS7003;43626;53.866;30.298;2023-02-15T22:36:39;25.8;22.2;13.8
57798;PMS7003;43626;53.866;30.298;2023-02-15T22:42:03;27.8;22.8;14
57798;PMS7003;43626;53.866;30.298;2023-02-15T22:46:38;28.8;22.8;14.2
57798;PMS7003;43626;53.866;30.298;2023-02-15T22:51:25;33.4;27;15.8
57798;PMS7003;43626;53.866;30.298;2023-02-15T22:56:33;51.5;36.8;20
57798;PMS7003;43626;53.866;30.298;2023-02-15T23:01:17;47.6;36.2;20
57798;PMS7003;43626;53.866;30.298;2023-02-15T23:06:41;61.2;45.2;24.4
57798;PMS7003;43626;53.866;30.298;2023-02-15T23:11:25;43.6;35.4;20.2
57798;PMS7003;43626;53.866;30.298;2023-02-15T23:17:03;54.8;39.4;23.2
57798;PMS7003;43626;53.866;30.298;2023-02-15T23:21:39;70;52;28.4
57798;PMS7003;43626;53.866;30.298;2023-02-15T23:26:41;77.4;55.8;31
57798;PMS7003;43626;53.866;30.298;2023-02-15T23:31:30;72.6;50.6;27.6
57798;PMS7003;43626;53.866;30.298;2023-02-15T23:36:51;61;44;25
57798;PMS7003;43626;53.866;30.298;2023-02-15T23:41:15;50;38.8;22.6
57798;PMS7003;43626;53.866;30.298;2023-02-15T23:46:21;46.6;36.8;22
57798;PMS7003;43626;53.866;30.298;2023-02-15T23:51:15;49.2;37.8;23.4
57798;PMS7003;43626;53.866;30.298;2023-02-15T23:56:54;47;37.8;22.5
